Time;durP1;ratioP1;P1;durP2;ratioP2;P2;SDS_P1;SDS_P2;PMS_P1;PMS_P2;Temp;Humidity;BMP_temperature;BMP_pressure;BME280_temperature;BME280_humidity;BME280_pressure;Samples;Min_cycle;Max_cycle;Signal;HPM_P1;HPM_P2
2022/11/12 02:25:55;;;;;;;13.07;4.40;;;;;;;6.31;100.00;101102.38;1788511;78;22594;-49
2022/11/12 02:28:41;;;;;;;8.38;4.95;;;;;;;6.27;100.00;101115.36;1764664;79;21046;-49
2022/11/12 02:31:26;;;;;;;7.53;5.30;;;;;;;6.26;100.00;101117.59;1767258;79;23497;-50
2022/11/12 02:34:12;;;;;;;8.18;4.60;;;;;;;6.26;100.00;101112.25;1763781;79;21026;-49
2022/11/12 02:36:57;;;;;;;8.18;4.90;;;;;;;6.25;100.00;101121.17;1769941;79;21066;-49
2022/11/12 02:39:42;;;;;;;9.63;5.37;;;;;;;6.24;100.00;101115.37;1760348;79;21096;-49
2022/11/12 02:42:27;;;;;;;;;;;;;;;6.25;100.00;101120.28;1764475;79;21037;-50
2022/11/12 02:45:12;;;;;;;8.28;4.72;;;;;;;6.25;100.00;101118.50;1760310;79;21752;-49
2022/11/12 02:47:57;;;;;;;5.08;4.10;;;;;;;6.28;100.00;101116.25;1766637;79;21041;-50
2022/11/12 02:50:42;;;;;;;8.45;4.60;;;;;;;6.29;100.00;101116.25;1762022;79;21616;-50
2022/11/12 02:53:27;;;;;;;10.05;3.98;;;;;;;6.32;100.00;101122.88;1763606;79;21055;-49
2022/11/12 02:56:12;;;;;;;7.72;5.05;;;;;;;6.34;100.00;101122.88;1737664;79;21067;-49
2022/11/12 02:58:57;;;;;;;9.68;5.30;;;;;;;6.37;100.00;101120.18;1735715;81;21893;-49
2022/11/12 03:01:42;;;;;;;12.35;5.42;;;;;;;6.38;100.00;101117.95;1738909;81;21595;-48
2022/11/12 03:04:27;;;;;;;7.28;4.90;;;;;;;6.39;100.00;101116.57;1735670;81;21016;-49
2022/11/12 03:07:11;;;;;;;6.58;5.10;;;;;;;6.40;100.00;101117.45;1737257;81;21124;-49
2022/11/12 03:09:58;;;;;;;6.03;5.25;;;;;;;6.41;100.00;101120.57;1736148;81;21475;-49
2022/11/12 03:12:43;;;;;;;7.92;5.45;;;;;;;6.41;100.00;101120.12;1736925;81;21863;-49
2022/11/12 03:15:29;;;;;;;6.90;5.22;;;;;;;6.40;100.00;101114.33;1739692;80;21033;-49
2022/11/12 03:18:14;;;;;;;7.67;4.78;;;;;;;6.42;100.00;101121.02;1739694;81;21029;-48
2022/11/12 03:20:59;;;;;;;10.68;5.97;;;;;;;6.44;100.00;101119.22;1734854;80;21108;-49
2022/11/12 03:23:45;;;;;;;6.72;4.83;;;;;;;6.45;100.00;101116.53;1737354;80;21048;-49
2022/11/12 03:26:30;;;;;;;8.20;4.97;;;;;;;6.45;100.00;101118.32;1738707;81;22001;-49
2022/11/12 03:29:16;;;;;;;7.53;4.90;;;;;;;6.45;100.00;101115.20;1738928;80;21109;-49
2022/11/12 03:32:01;;;;;;;;;;;;;;;6.46;100.00;101120.09;1700488;82;21649;-49
2022/11/12 03:34:48;;;;;;;6.67;3.90;;;;;;;6.46;100.00;101116.94;1691400;83;20615;-49
2022/11/12 03:37:33;;;;;;;;;;;;;;;6.46;100.00;101113.41;1695842;83;21411;-49
2022/11/12 03:40:19;;;;;;;9.78;5.70;;;;;;;6.47;100.00;101117.83;1690037;83;22543;-48
2022/11/12 03:43:04;;;;;;;10.85;5.40;;;;;;;6.48;100.00;101119.61;1691235;83;21518;-48
2022/11/12 03:45:49;;;;;;;8.78;5.22;;;;;;;6.50;100.00;101117.81;1693216;83;21084;-49
2022/11/12 03:48:34;;;;;;;7.80;5.72;;;;;;;6.51;100.00;101124.94;1691117;83;22729;-49
2022/11/12 03:51:20;;;;;;;7.58;4.95;;;;;;;6.52;100.00;101122.70;1691499;83;21532;-49
2022/11/12 03:54:05;;;;;;;9.78;6.67;;;;;;;6.54;100.00;101123.58;1688461;83;21795;-49
2022/11/12 03:56:50;;;;;;;10.40;6.08;;;;;;;6.55;100.00;101121.80;1687454;83;21044;-49
2022/11/12 03:59:35;;;;;;;10.00;5.87;;;;;;;6.57;100.00;101112.83;1692697;83;21108;-49
2022/11/12 04:02:21;;;;;;;6.72;5.08;;;;;;;6.59;100.00;101100.78;1686541;83;21060;-49
2022/11/12 04:11:20;;;;;;;7.92;6.58;;;;;;;6.64;100.00;101106.50;1690592;83;21212;-49
2022/11/12 04:14:05;;;;;;;;;;;;;;;6.67;100.00;101098.91;1705701;83;21089;-49
2022/11/12 04:22:57;;;;;;;15.50;5.00;;;;;;;6.71;100.00;101105.56;1700511;82;22390;-49
2022/11/12 04:31:51;;;;;;;9.18;4.83;;;;;;;6.80;100.00;101113.45;1675719;84;21041;-49
2022/11/12 04:34:35;;;;;;;;;;;;;;;6.82;100.00;101122.36;1689298;83;21839;-49
2022/11/12 04:37:22;;;;;;;5.97;4.40;;;;;;;6.86;100.00;101123.23;1687649;83;23119;-49
2022/11/12 04:46:19;;;;;;;8.73;5.12;;;;;;;6.89;100.00;101110.27;1692924;83;21503;-49
2022/11/12 04:49:03;;;;;;;8.75;5.17;;;;;;;6.89;100.00;101112.46;1694024;83;22456;-48
2022/11/12 04:52:03;;;;;;;7.62;4.90;;;;;;;6.92;100.00;101112.89;1691892;83;21378;-48
2022/11/12 04:54:50;;;;;;;7.28;5.15;;;;;;;6.95;100.00;101119.55;1723976;81;21064;-48
2022/11/12 04:57:35;;;;;;;10.40;5.25;;;;;;;6.98;100.00;101117.71;1723038;81;21667;-48
2022/11/12 05:00:20;;;;;;;;;;;;;;;7.00;100.00;101116.36;1724897;81;21476;-49
2022/11/12 05:03:04;;;;;;;11.33;5.83;;;;;;;7.02;100.00;101112.77;1722265;81;20209;-49
2022/11/12 05:05:49;;;;;;;;;;;;;;;7.02;100.00;101100.72;1725517;81;21957;-49
2022/11/12 05:08:34;;;;;;;11.15;6.60;;;;;;;7.03;100.00;101098.48;1724665;81;20991;-49
2022/11/12 05:11:19;;;;;;;;;;;;;;;7.04;100.00;101094.91;1726931;81;21042;-49
2022/11/12 05:14:04;;;;;;;13.18;5.58;;;;;;;7.06;100.00;101094.41;1723815;81;20570;-49
2022/11/12 05:16:50;;;;;;;9.30;6.95;;;;;;;7.07;100.00;101096.19;1719789;81;21065;-49
2022/11/12 05:19:36;;;;;;;8.58;5.37;;;;;;;7.09;100.00;101097.50;1724723;81;21750;-49
2022/11/12 05:22:21;;;;;;;8.43;6.25;;;;;;;7.08;100.00;101104.66;1723885;81;21571;-49
2022/11/12 05:25:07;;;;;;;7.08;6.37;;;;;;;7.09;100.00;101106.42;1726651;81;21086;-49
2022/11/12 05:27:51;;;;;;;8.28;5.67;;;;;;;7.10;100.00;101122.93;1726828;82;21041;-49
2022/11/12 05:30:38;;;;;;;9.40;5.90;;;;;;;7.12;100.00;101132.29;1725075;81;21035;-49
2022/11/12 05:33:23;;;;;;;;;;;;;;;7.12;100.00;101130.95;1726276;81;21237;-49
2022/11/12 05:36:08;;;;;;;9.20;6.97;;;;;;;7.14;100.00;101135.39;1722598;81;21035;-48
2022/11/12 05:38:54;;;;;;;7.70;5.60;;;;;;;7.16;100.00;101134.00;1723583;81;21109;-49
2022/11/12 05:41:39;;;;;;;8.98;6.10;;;;;;;7.17;100.00;101142.02;1690669;83;21095;-49
2022/11/12 05:44:25;;;;;;;9.28;6.70;;;;;;;7.19;100.00;101132.19;1692915;82;21082;-49
2022/11/12 05:47:10;;;;;;;7.30;6.03;;;;;;;7.20;100.00;101125.93;1662653;84;22126;-49
2022/11/12 05:49:55;;;;;;;;;;;;;;;7.21;100.00;101132.17;1729912;81;21024;-49
2022/11/12 05:52:40;;;;;;;10.82;5.83;;;;;;;7.23;100.00;101134.36;1726398;81;20185;-50
2022/11/12 05:55:25;;;;;;;9.08;6.05;;;;;;;7.26;100.00;101138.80;1719398;80;21063;-50
2022/11/12 05:58:10;;;;;;;8.10;6.15;;;;;;;7.28;100.00;101139.67;1723212;81;21130;-49
2022/11/12 06:00:55;;;;;;;12.13;7.05;;;;;;;7.29;100.00;101140.11;1726815;81;21919;-49
2022/11/12 06:03:40;;;;;;;6.42;5.35;;;;;;;7.30;100.00;101139.20;1728477;81;21038;-50
2022/11/12 06:06:26;;;;;;;8.43;6.60;;;;;;;7.31;100.00;101135.17;1720177;81;21013;-50
2022/11/12 06:09:11;;;;;;;10.10;6.53;;;;;;;7.37;100.00;101144.91;1726041;81;21093;-50
2022/11/12 06:11:57;;;;;;;7.15;6.45;;;;;;;7.38;100.00;101135.52;1722599;81;21102;-49
2022/11/12 06:14:43;;;;;;;10.50;6.20;;;;;;;7.41;100.00;101135.91;1725254;81;21766;-50
2022/11/12 06:17:28;;;;;;;7.87;6.72;;;;;;;7.45;100.00;101142.56;1724955;82;21065;-49
2022/11/12 06:20:14;;;;;;;9.48;6.70;;;;;;;7.50;100.00;101147.84;1721703;82;21100;-50
2022/11/12 06:23:00;;;;;;;11.08;6.87;;;;;;;7.54;100.00;101142.44;1717626;81;21082;-50
2022/11/12 06:25:46;;;;;;;8.73;5.97;;;;;;;7.57;100.00;101142.37;1684185;83;21099;-49
2022/11/12 06:28:30;;;;;;;7.60;6.25;;;;;;;7.58;100.00;101152.19;1682285;83;21891;-49
2022/11/12 06:31:26;;;;;;;7.03;5.83;;;;;;;7.62;100.00;101129.38;1790637;77;22439;-49
2022/11/12 06:34:12;;;;;;;12.07;7.35;;;;;;;7.62;100.00;101142.33;1765322;79;21105;-49
2022/11/12 06:36:57;;;;;;;11.18;7.05;;;;;;;7.60;100.00;101133.42;1767397;79;21847;-49
2022/11/12 06:39:42;;;;;;;8.95;6.92;;;;;;;7.62;100.00;101129.38;1769876;78;21065;-49
2022/11/12 06:42:27;;;;;;;12.73;7.67;;;;;;;7.64;100.00;101125.78;1768066;79;21805;-49
2022/11/12 06:45:12;;;;;;;9.30;7.80;;;;;;;7.68;100.00;101142.23;1771704;79;21554;-49
2022/11/12 06:47:58;;;;;;;;;;;;;;;7.73;100.00;101142.19;1768279;79;21044;-49
2022/11/12 06:50:43;;;;;;;12.90;8.08;;;;;;;7.77;100.00;101130.04;1769270;79;22849;-49
2022/11/12 06:53:28;;;;;;;11.12;7.33;;;;;;;7.81;100.00;101130.44;1771003;79;21378;-49
2022/11/12 06:56:14;;;;;;;8.83;7.70;;;;;;;7.86;100.00;101127.67;1743147;80;21060;-49
2022/11/12 06:59:00;;;;;;;8.60;7.53;;;;;;;7.93;100.00;101125.33;1742395;81;21038;-48
2022/11/12 07:01:45;;;;;;;;;;;;;;;8.01;100.00;101115.36;1747218;81;21531;-48
2022/11/12 07:04:30;;;;;;;;;;;;;;;8.07;100.00;101120.65;1742695;81;21938;-48
2022/11/12 07:07:16;;;;;;;14.10;8.13;;;;;;;8.15;100.00;101116.04;1739274;81;20456;-49
2022/11/12 07:10:01;;;;;;;13.50;7.87;;;;;;;8.20;100.00;101113.27;1740087;81;21103;-48
2022/11/12 07:12:46;;;;;;;11.45;7.80;;;;;;;8.24;100.00;101103.81;1746115;81;21621;-48
2022/11/12 07:15:31;;;;;;;9.70;7.87;;;;;;;8.30;100.00;101093.42;1745032;81;21092;-48
2022/11/12 07:18:17;;;;;;;16.82;9.93;;;;;;;8.36;100.00;101093.34;1743909;80;21066;-49
2022/11/12 07:21:09;;;;;;;14.25;9.78;;;;;;;8.39;100.00;101089.27;1743068;81;21201;-50
2022/11/12 07:23:55;;;;;;;10.35;8.40;;;;;;;8.43;100.00;101090.08;1745553;81;21189;-49
2022/11/12 07:26:41;;;;;;;13.70;8.60;;;;;;;8.47;100.00;101091.81;1744770;80;21027;-48
2022/11/12 07:29:26;;;;;;;13.72;8.98;;;;;;;8.52;100.00;101089.45;1740717;81;21143;-48
2022/11/12 07:32:11;;;;;;;11.45;8.35;;;;;;;8.56;100.00;101085.82;1731592;81;21795;-48
2022/11/12 07:34:56;;;;;;;14.18;10.03;;;;;;;8.62;100.00;101080.78;1733164;81;21554;-48
2022/11/12 07:37:41;;;;;;;11.93;9.43;;;;;;;8.69;100.00;101087.34;1731808;80;21104;-49
2022/11/12 07:40:26;;;;;;;;;;;;;;;8.79;100.00;101092.08;1732769;80;21509;-48
2022/11/12 07:43:11;;;;;;;14.03;10.85;;;;;;;8.86;100.00;101088.34;1725588;81;20474;-49
2022/11/12 07:46:00;;;;;;;16.25;11.53;;;;;;;8.93;100.00;101082.42;1732910;81;22251;-50
2022/11/12 07:48:45;;;;;;;18.17;12.90;;;;;;;9.01;100.00;101078.66;1692958;82;21032;-49
2022/11/12 07:51:31;;;;;;;22.13;12.45;;;;;;;9.10;100.00;101086.50;1726575;82;21068;-49
2022/11/12 07:54:16;;;;;;;12.50;9.40;;;;;;;9.20;100.00;101084.95;1730887;80;21363;-49
2022/11/12 07:57:01;;;;;;;;;;;;;;;9.30;100.00;101085.19;1732049;81;21156;-49
2022/11/12 07:59:46;;;;;;;16.75;9.85;;;;;;;9.38;100.00;101083.22;1731898;81;21803;-49
2022/11/12 08:02:31;;;;;;;17.62;9.43;;;;;;;9.46;100.00;101087.50;1730161;81;21502;-49
2022/11/12 08:05:16;;;;;;;9.78;7.72;;;;;;;9.55;100.00;101091.79;1725625;80;21049;-49
2022/11/12 08:08:02;;;;;;;13.62;8.30;;;;;;;9.61;100.00;101090.30;1729301;82;21147;-49
2022/11/12 08:10:53;;;;;;;9.10;8.18;;;;;;;9.68;100.00;101088.37;1731606;81;21065;-48
2022/11/12 08:13:39;;;;;;;9.70;8.05;;;;;;;9.76;100.00;101091.30;1738034;80;21554;-48
2022/11/12 08:16:25;;;;;;;10.88;7.45;;;;;;;9.87;100.00;101101.32;1731779;81;21037;-49
2022/11/12 08:19:10;;;;;;;;;;;;;;;9.98;100.00;101094.80;1728100;81;21573;-48
2022/11/12 08:21:55;;;;;;;10.45;7.42;;;;;;;10.04;100.00;101095.53;1735223;80;20209;-48
2022/11/12 08:24:40;;;;;;;11.48;7.90;;;;;;;10.12;100.00;101098.06;1734864;81;21073;-48
2022/11/12 08:27:25;;;;;;;7.42;6.72;;;;;;;10.21;100.00;101097.38;1692954;83;22715;-48
2022/11/12 08:30:12;;;;;;;9.88;6.10;;;;;;;10.29;100.00;101100.36;1728334;80;21053;-48
2022/11/12 08:33:03;;;;;;;10.38;6.65;;;;;;;10.38;100.00;101106.36;1728387;80;21153;-48
2022/11/12 08:35:47;;;;;;;13.25;6.20;;;;;;;10.49;100.00;101110.12;1730575;81;21056;-48
2022/11/12 08:38:33;;;;;;;10.85;6.10;;;;;;;10.58;100.00;101100.00;1736315;81;21550;-49
2022/11/12 08:41:18;;;;;;;10.63;7.25;;;;;;;10.68;100.00;101101.98;1730638;80;22465;-50
2022/11/12 08:44:04;;;;;;;;;;;;;;;10.78;100.00;101094.08;1733922;80;21030;-50
2022/11/12 08:46:49;;;;;;;;;;;;;;;10.90;100.00;101106.30;1730162;81;20172;-50
2022/11/12 08:49:34;;;;;;;13.05;5.72;;;;;;;10.99;100.00;101094.80;1742451;80;20804;-49
2022/11/12 08:52:20;;;;;;;9.65;5.60;;;;;;;11.11;100.00;101100.31;1727228;81;21057;-49
2022/11/12 08:55:07;;;;;;;8.15;5.85;;;;;;;11.21;100.00;101099.58;1730145;80;21838;-48
2022/11/12 08:57:52;;;;;;;8.75;5.12;;;;;;;11.32;100.00;101101.47;1725492;81;21038;-48
2022/11/12 09:00:42;;;;;;;9.05;5.00;;;;;;;11.32;100.00;101101.47;1736245;81;21065;-48
2022/11/12 09:03:27;;;;;;;9.50;5.15;;;;;;;11.49;100.00;101103.66;1730416;81;21058;-49
2022/11/12 09:06:12;;;;;;;6.95;5.70;;;;;;;11.49;100.00;101103.66;1731535;81;21571;-49
2022/11/12 09:08:57;;;;;;;8.18;6.55;;;;;;;11.53;100.00;101105.34;1738257;80;21833;-49
2022/11/12 09:11:42;;;;;;;8.18;5.30;;;;;;;11.53;100.00;101098.14;1735269;81;21538;-50
2022/11/12 09:14:28;;;;;;;8.58;5.42;;;;;;;11.54;100.00;101099.02;1731540;81;21079;-49
2022/11/12 09:17:13;;;;;;;9.18;5.97;;;;;;;11.52;100.00;101095.48;1734102;80;21044;-50
2022/11/12 09:20:00;;;;;;;10.78;5.65;;;;;;;11.50;100.00;101086.55;1730491;81;21037;-49
2022/11/12 09:25:15;;;;;;;10.63;5.17;;;;;;;11.45;100.00;101063.79;1791197;78;23799;-48
2022/11/12 09:28:15;;;;;;;9.13;6.95;;;;;;;11.47;100.00;101078.58;1779841;79;21552;-50
2022/11/12 09:31:01;;;;;;;9.00;5.20;;;;;;;11.47;100.00;101075.88;1772421;79;21917;-49
2022/11/12 09:33:46;;;;;;;7.33;3.83;;;;;;;11.44;100.00;101078.66;1773234;80;21068;-50
2022/11/12 09:36:31;;;;;;;6.80;4.30;;;;;;;11.48;100.00;101085.73;1776385;79;21045;-50
2022/11/12 09:39:15;;;;;;;8.58;4.90;;;;;;;11.48;100.00;101074.95;1778654;79;21526;-49
2022/11/12 09:42:14;;;;;;;6.60;4.58;;;;;;;11.48;100.00;101078.53;1779839;79;21553;-50
2022/11/12 09:45:27;;;;;;;6.10;5.05;;;;;;;11.50;100.00;101073.07;1774195;79;21404;-49
2022/11/12 09:48:18;;;;;;;10.88;4.78;;;;;;;11.56;100.00;101080.53;1749977;80;21606;-49
2022/11/12 09:51:07;;;;;;;10.58;5.85;;;;;;;11.62;100.00;101078.09;1770422;79;21390;-49
2022/11/12 09:54:05;;;;;;;5.62;4.92;;;;;;;11.67;100.00;101078.81;1771356;79;21037;-50
2022/11/12 09:56:51;;;;;;;7.37;4.75;;;;;;;11.72;100.00;101067.44;1738399;80;21532;-49
2022/11/12 09:59:40;;;;;;;5.97;4.37;;;;;;;11.76;100.00;101065.07;1745813;81;21693;-51
2022/11/12 10:02:41;;;;;;;10.25;4.85;;;;;;;11.79;100.00;101065.45;1742649;81;21041;-49
2022/11/12 10:05:42;;;;;;;8.68;4.15;;;;;;;11.82;100.00;101078.39;1745805;80;21016;-49
2022/11/12 10:08:42;;;;;;;5.75;4.92;;;;;;;11.85;100.00;101078.27;1745021;80;21569;-50
2022/11/12 10:12:31;;;;;;;7.22;4.08;;;;;;;11.90;100.00;101074.09;1740733;81;21049;-50
2022/11/12 10:19:54;;;;;;;10.05;4.20;;;;;;;11.99;100.00;101075.13;1741700;81;21041;-49
2022/11/12 10:23:04;;;;;;;6.15;4.97;;;;;;;12.06;100.00;101071.30;1743843;81;21583;-49
2022/11/12 10:25:50;;;;;;;6.75;4.33;;;;;;;12.11;100.00;101064.80;1742088;81;21396;-49
2022/11/12 10:28:56;;;;;;;8.65;4.47;;;;;;;12.17;100.00;101067.74;1745898;81;21632;-49
2022/11/12 10:31:42;;;;;;;7.37;4.35;;;;;;;12.20;100.00;101069.47;1746552;80;21753;-49
2022/11/12 10:34:27;;;;;;;7.35;5.17;;;;;;;12.21;100.00;101063.14;1743036;81;21260;-49
2022/11/12 10:37:35;;;;;;;5.17;3.62;;;;;;;12.23;100.00;101063.97;1721615;81;21041;-49
2022/11/12 10:40:28;;;;;;;8.93;5.22;;;;;;;12.26;100.00;101054.40;1746758;81;21033;-49
2022/11/12 10:43:24;;;;;;;9.05;4.47;;;;;;;12.29;100.00;101054.30;1650375;82;21117;-78
2022/11/12 10:46:15;;;;;;;;;;;;;;;12.27;100.00;101046.25;1709800;82;22027;-78
2022/11/12 10:49:16;;;;;;;6.47;3.45;;;;;;;12.27;100.00;101047.60;1708293;82;20213;-78
2022/11/12 10:52:00;;;;;;;9.08;6.75;;;;;;;12.27;100.00;101039.97;1705183;82;21097;-79
2022/11/12 10:54:48;;;;;;;8.65;7.28;;;;;;;12.26;100.00;101040.90;1705216;82;21034;-79
2022/11/12 10:57:32;;;;;;;13.93;8.53;;;;;;;12.25;100.00;101036.47;1708593;82;21066;-78
2022/11/12 11:00:20;;;;;;;11.70;7.37;;;;;;;12.19;100.00;101039.35;1709479;82;21050;-79
2022/11/12 11:03:21;;;;;;;9.03;6.72;;;;;;;12.13;100.00;101035.94;1707870;82;21107;-78
2022/11/12 11:06:17;;;;;;;6.95;4.97;;;;;;;12.09;100.00;101036.08;1707222;82;21105;-79
2022/11/12 11:09:15;;;;;;;9.83;3.83;;;;;;;12.08;100.00;101026.22;1707761;82;21123;-78
2022/11/12 11:12:01;;;;;;;8.88;4.50;;;;;;;12.08;100.00;101019.47;1703416;82;21091;-79
2022/11/12 11:14:47;;;;;;;6.33;5.08;;;;;;;12.08;100.00;101023.52;1705525;82;21122;-79
2022/11/12 11:17:33;;;;;;;;;;;;;;;12.08;100.00;101023.52;1659819;82;21045;-79
2022/11/12 11:20:37;;;;;;;9.38;4.85;;;;;;;12.07;100.00;101021.78;1703834;82;21086;-79
2022/11/12 11:23:29;;;;;;;9.65;5.12;;;;;;;12.07;100.00;101021.78;1706321;82;21125;-78
2022/11/12 11:26:40;;;;;;;6.92;4.20;;;;;;;12.06;100.00;101014.62;1707364;82;21531;-79
2022/11/12 11:29:56;;;;;;;8.43;3.67;;;;;;;12.04;100.00;101026.81;1673992;82;21816;-78
2022/11/12 11:33:24;;;;;;;5.65;3.95;;;;;;;12.02;100.00;101023.27;1701210;82;21055;-78
2022/11/12 11:36:23;;;;;;;6.40;3.95;;;;;;;11.99;100.00;101024.72;1701346;82;21072;-78
2022/11/12 11:39:25;;;;;;;13.75;5.58;;;;;;;12.00;100.00;101026.48;1705692;82;21590;-79
2022/11/12 11:42:18;;;;;;;7.95;7.15;;;;;;;12.03;100.00;101025.05;1645851;85;21384;-79
2022/11/12 11:45:20;;;;;;;9.13;5.55;;;;;;;12.01;100.00;101029.60;1650423;85;21989;-77
2022/11/12 11:48:16;;;;;;;8.50;5.87;;;;;;;12.00;100.00;101031.88;1647134;85;21061;-77
2022/11/12 11:51:20;;;;;;;10.82;4.80;;;;;;;11.99;100.00;101036.01;1671762;84;21081;-77
2022/11/12 11:54:13;;;;;;;5.30;3.50;;;;;;;11.97;100.00;101034.70;1673569;84;21074;-77
2022/11/12 11:57:00;;;;;;;9.08;4.90;;;;;;;11.96;100.00;101023.95;1709421;82;21065;-77
2022/11/12 12:00:22;;;;;;;8.98;4.90;;;;;;;11.97;100.00;101025.26;1710539;82;21935;-77
2022/11/12 12:03:37;;;;;;;7.12;5.45;;;;;;;12.02;100.00;101027.32;1667088;84;21156;-78
2022/11/12 12:06:29;;;;;;;8.80;5.53;;;;;;;12.07;100.00;101019.09;1710429;82;21123;-79
2022/11/12 12:09:46;;;;;;;9.20;6.17;;;;;;;12.13;100.00;101010.77;1708627;82;21079;-78
2022/11/12 12:13:28;;;;;;;10.13;4.78;;;;;;;12.16;100.00;101013.37;1708281;82;21078;-79
2022/11/12 12:16:39;;;;;;;5.80;4.65;;;;;;;12.16;100.00;101018.77;1704693;82;21892;-80
2022/11/12 12:20:01;;;;;;;9.08;4.15;;;;;;;12.13;100.00;101002.20;1705089;82;21543;-79
2022/11/12 12:23:00;;;;;;;9.60;5.47;;;;;;;12.11;100.00;101006.77;1705514;82;21067;-78
2022/11/12 12:25:45;;;;;;;9.00;5.17;;;;;;;12.13;100.00;101010.30;1710460;82;21100;-79
2022/11/12 12:28:51;;;;;;;9.23;6.37;;;;;;;12.09;100.00;101001.88;1704945;82;21075;-78
2022/11/12 12:31:41;;;;;;;11.28;5.92;;;;;;;12.07;100.00;101009.17;1702966;82;22711;-79
2022/11/12 12:34:39;;;;;;;4.85;3.98;;;;;;;12.02;100.00;101004.38;1708364;82;21074;-78
2022/11/12 12:37:55;;;;;;;8.83;3.90;;;;;;;11.99;100.00;101005.83;1687492;82;21077;-79
2022/11/12 12:40:45;;;;;;;6.17;4.53;;;;;;;11.97;100.00;100996.05;1704985;82;21085;-80
2022/11/12 12:43:48;;;;;;;7.47;4.45;;;;;;;11.94;100.00;100984.88;1707008;82;21076;-78
2022/11/12 12:46:42;;;;;;;7.95;4.92;;;;;;;11.94;100.00;100992.09;1702146;82;22486;-78
2022/11/12 12:49:30;;;;;;;9.88;5.70;;;;;;;11.90;100.00;100997.19;1701257;82;21082;-79
2022/11/12 12:52:16;;;;;;;7.53;4.45;;;;;;;11.87;100.00;100987.84;1707814;82;21067;-79
2022/11/12 12:55:01;;;;;;;8.68;4.97;;;;;;;11.83;100.00;100988.39;1705139;82;21389;-76
2022/11/12 12:57:46;;;;;;;8.68;4.75;;;;;;;11.77;100.00;100991.77;1705011;82;21130;-79
2022/11/12 13:00:36;;;;;;;5.60;3.80;;;;;;;11.72;100.00;100986.05;1705446;82;22850;-78
2022/11/12 13:03:46;;;;;;;8.28;4.12;;;;;;;11.71;100.00;100988.80;1709045;82;21551;-77
2022/11/12 13:06:47;;;;;;;8.43;4.42;;;;;;;11.71;100.00;100983.40;1704869;82;21661;-78
2022/11/12 13:09:34;;;;;;;8.03;4.75;;;;;;;11.73;100.00;100981.55;1704141;82;21122;-77
2022/11/12 13:15:14;;;;;;;6.12;4.92;;;;;;;11.72;100.00;100994.14;1708079;82;21875;-79
2022/11/12 13:17:59;;;;;;;7.10;4.47;;;;;;;11.71;100.00;100990.14;1709810;82;28085;-78
2022/11/12 13:21:11;;;;;;;7.90;4.47;;;;;;;11.67;100.00;100990.70;1708862;82;21604;-78
2022/11/12 13:24:07;;;;;;;7.62;5.40;;;;;;;11.65;100.00;100993.05;1707723;82;21586;-78
2022/11/12 13:26:56;;;;;;;6.33;5.70;;;;;;;11.62;100.00;100993.14;1711569;82;21546;-77
2022/11/12 13:29:42;;;;;;;11.97;5.72;;;;;;;11.59;100.00;100990.06;1703446;82;22478;-76
2022/11/12 13:32:38;;;;;;;4.85;4.12;;;;;;;11.59;100.00;100990.06;1707993;82;21089;-79
2022/11/12 13:35:33;;;;;;;5.90;4.37;;;;;;;11.57;100.00;100987.03;1709151;82;21892;-77
2022/11/12 13:38:19;;;;;;;7.70;4.95;;;;;;;11.55;100.00;100984.38;1714175;82;21047;-78
2022/11/12 13:41:16;;;;;;;5.37;4.20;;;;;;;11.50;100.00;100984.97;1707391;82;21085;-77
2022/11/12 13:44:05;;;;;;;4.00;3.67;;;;;;;11.50;100.00;100984.97;1707772;82;21826;-78
2022/11/12 13:46:50;;;;;;;6.58;4.58;;;;;;;11.49;100.00;100985.02;1709207;82;21510;-79
2022/11/12 13:49:36;;;;;;;7.15;5.75;;;;;;;11.49;100.00;100976.46;1707658;82;21542;-77
2022/11/12 13:52:21;;;;;;;;;;;;;;;11.50;100.00;100974.66;1713413;82;21829;-77
2022/11/12 13:55:16;;;;;;;6.70;5.15;;;;;;;11.50;100.00;100982.27;1707110;82;20300;-76
2022/11/12 13:58:01;;;;;;;11.55;6.90;;;;;;;11.47;100.00;100971.61;1709523;82;21733;-79
2022/11/12 14:00:55;;;;;;;9.83;6.03;;;;;;;11.46;100.00;100972.54;1704503;82;21704;-77
2022/11/12 14:03:47;;;;;;;4.78;4.17;;;;;;;11.42;100.00;100984.34;1709361;82;21094;-77
2022/11/12 14:06:37;;;;;;;7.90;4.95;;;;;;;11.38;100.00;100975.95;1707297;82;21129;-77
2022/11/12 14:09:49;;;;;;;42.38;30.52;;;;;;;11.36;100.00;100975.11;1705855;82;21067;-76
2022/11/12 14:13:12;;;;;;;11.38;10.18;;;;;;;11.35;100.00;100989.05;1707792;82;21930;-78
2022/11/12 14:16:29;;;;;;;15.15;12.80;;;;;;;11.33;100.00;100986.86;1706507;82;21119;-77
2022/11/12 14:19:43;;;;;;;9.55;6.05;;;;;;;11.33;100.00;100986.86;1706151;82;21031;-78
2022/11/12 14:22:39;;;;;;;7.97;6.97;;;;;;;11.33;100.00;100992.25;1706341;82;21054;-79
2022/11/12 14:25:25;;;;;;;;;;;;;;;11.28;100.00;100976.70;1707969;82;21116;-78
2022/11/12 14:28:35;;;;;;;5.47;5.08;;;;;;;11.22;100.00;100975.56;1706509;82;21930;-78
2022/11/12 14:31:24;;;;;;;7.15;6.35;;;;;;;11.18;100.00;100976.58;1703415;82;21058;-78
2022/11/12 14:34:28;;;;;;;7.28;5.95;;;;;;;11.14;100.00;100980.77;1709474;82;21079;-77
2022/11/12 14:37:35;;;;;;;7.77;6.00;;;;;;;11.12;100.00;100983.97;1706944;82;21698;-77
2022/11/12 14:40:23;;;;;;;7.28;6.58;;;;;;;11.11;100.00;100981.74;1694758;82;21125;-76
2022/11/12 14:43:44;;;;;;;8.53;7.35;;;;;;;11.10;100.00;100982.67;1710016;82;21791;-75
2022/11/12 14:46:52;;;;;;;9.48;7.67;;;;;;;11.07;100.00;100980.05;1707106;82;21103;-76
2022/11/12 14:49:41;;;;;;;8.65;6.60;;;;;;;11.01;100.00;100977.56;1670782;84;21085;-75
2022/11/12 14:52:33;;;;;;;7.78;6.87;;;;;;;10.97;100.00;100986.68;1672932;84;21405;-77
2022/11/12 14:55:21;;;;;;;7.37;5.62;;;;;;;10.93;100.00;100984.53;1660582;84;21088;-76
2022/11/12 14:58:06;;;;;;;10.38;6.60;;;;;;;10.90;100.00;100979.22;1707706;82;21787;-76
2022/11/12 15:00:52;;;;;;;6.95;6.25;;;;;;;10.91;100.00;100982.80;1712111;82;21095;-76
2022/11/12 15:03:37;;;;;;;7.78;7.05;;;;;;;10.89;100.00;100974.77;1707718;82;22050;-77
2022/11/12 15:06:32;;;;;;;9.83;8.25;;;;;;;10.93;100.00;100979.61;1707912;82;21459;-76
2022/11/12 15:09:19;;;;;;;9.55;8.40;;;;;;;10.92;100.00;100973.33;1710487;82;21142;-77
2022/11/12 15:12:10;;;;;;;7.80;6.72;;;;;;;10.92;100.00;100975.14;1678377;84;21847;-76
2022/11/12 15:15:16;;;;;;;6.03;5.45;;;;;;;10.89;100.00;100971.19;1675212;84;21403;-75
2022/11/12 15:18:06;;;;;;;6.67;5.05;;;;;;;10.83;100.00;100969.56;1710978;82;21621;-78
2022/11/12 15:21:13;;;;;;;4.65;4.05;;;;;;;10.77;100.00;100967.06;1706586;82;21066;-77
2022/11/12 15:24:15;;;;;;;5.05;3.92;;;;;;;10.72;100.00;100965.45;1708879;82;21097;-76
2022/11/12 15:27:22;;;;;;;4.70;3.37;;;;;;;10.70;100.00;100978.07;1705323;82;21760;-79
2022/11/12 15:30:15;;;;;;;3.30;3.00;;;;;;;10.70;100.00;100980.30;1705668;82;21417;-76
2022/11/12 15:33:18;;;;;;;3.95;3.25;;;;;;;10.73;100.00;100975.27;1706571;82;21086;-78
2022/11/12 15:36:03;;;;;;;2.92;2.67;;;;;;;10.72;100.00;100969.49;1706547;82;21061;-77
2022/11/12 15:38:50;;;;;;;7.22;3.50;;;;;;;10.73;100.00;100973.92;1707286;82;21070;-77
2022/11/12 15:41:35;;;;;;;3.85;3.37;;;;;;;10.71;100.00;100968.61;1706241;82;22662;-76
2022/11/12 15:44:20;;;;;;;3.50;3.00;;;;;;;10.69;100.00;100965.53;1701749;82;21333;-77
2022/11/12 15:47:12;;;;;;;4.22;2.95;;;;;;;10.67;100.00;100959.30;1709506;82;21078;-76
2022/11/12 15:49:58;;;;;;;2.95;2.75;;;;;;;10.62;100.00;100956.75;1706479;82;21058;-77
2022/11/12 15:52:43;;;;;;;4.00;2.58;;;;;;;10.60;100.00;100961.30;1708979;82;21090;-76
2022/11/12 15:55:27;;;;;;;2.62;2.35;;;;;;;10.57;100.00;100944.76;1709311;82;21772;-76
2022/11/12 15:58:21;;;;;;;3.33;2.50;;;;;;;10.57;100.00;100954.18;1706287;82;21070;-76
2022/11/12 16:01:06;;;;;;;3.45;3.22;;;;;;;10.57;100.00;100950.14;1703635;82;21123;-77
2022/11/12 16:03:51;;;;;;;3.08;2.55;;;;;;;10.59;100.00;100947.41;1708385;82;21508;-77
2022/11/12 16:06:37;;;;;;;3.72;2.45;;;;;;;10.61;100.00;100946.91;1708946;82;22301;-76
2022/11/12 16:09:22;;;;;;;3.80;2.65;;;;;;;10.63;100.00;100954.95;1710358;82;21909;-76
2022/11/12 16:12:10;;;;;;;2.33;1.82;;;;;;;10.65;100.00;100944.53;1702267;82;21561;-75